Season 21
 
 
 

TWL – Player Statistics
 


Seasons: 1 - 2 - 3 - 4 - 5 - 6 - 7 - 8 - 9 - 10 - 11 - 12 - 13 - 14 - 15 - 16 - 17 - 18 - 19 - 20 - 21

Leagues: All Leagues - TWLD - TWLJ - TWLB

Ships: All ships - Warbird - Javelin - Spider - Terrier - Lancaster - Shark

Player Squad G SPK TRK SRK JTK STK FT W L AVK HW AVD AVP RT LO SUB TP
Dak Sweet 1 0 0 2 0 0 0 2 3 2 2 3 3010 33 0 1 0:01:10
MHz Cobra 1 0 0 0 0 0 1 0 13 0 0 13 2600 -33 0 1 0:03:19
Confluence Sage 1 1 0 0 0 0 0 1 20 1 1 20 2204 -41 0 1 0:04:41
rodney Revenge 1 24 1 13 0 0 0 42 25 42 42 25 4697 2248 0 0 0:09:54
Executed Spastic 1 3 0 10 0 0 0 13 15 13 13 15 686 71 1 1 0:10:11
drug Raid 1 3 1 13 0 0 0 17 16 17 17 16 1148 260 0 1 0:11:03
Cross Cobra 1 7 1 22 0 0 0 33 28 53 33 28 10917 9205 0 0 0:12:54
Flion Spastic 1 0 0 0 0 1 1 0 58 0 0 58 400 -170 0 0 0:13:20
SwimKid Raid 1 22 0 19 0 0 0 42 46 42 41 46 4582 357 0 0 0:17:04
Saving Raid 1 4 1 5 0 0 0 10 23 10 7 23 628 -7 0 0 0:19:31
Prox Spastic 1 18 0 29 0 0 0 49 39 49 49 39 2482 1460 1 0 0:20:00
skyforger Dudgeon 1 13 0 13 0 0 3 26 39 26 26 39 4989 -544 0 1 0:20:04
Kira_yamato~ Raid 1 4 0 7 1 0 0 14 22 14 8 22 1372 -54 8 0 0:20:11
Primordial Raid 1 13 0 15 0 0 0 28 41 28 28 41 2358 -68 0 0 0:20:30
Lionheart Cobra 1 34 3 37 0 0 0 74 17 74 74 17 15204 24770 0 0 0:21:08
Steep Raid 1 26 1 25 0 0 1 52 49 52 52 49 3504 1268 0 0 0:21:11
Marge Sweet 1 24 0 31 0 0 0 56 58 56 56 58 5056 1777 1 0 0:21:19
BongHits Cobra 1 12 2 3 0 0 17 17 81 17 17 81 4969 -1701 0 1 0:21:45
Children Pandora 1 42 2 23 0 3 1 70 28 70 56 28 32944 12011 0 0 0:22:20
warportal Revenge 1 6 1 5 0 0 0 26 8 26 26 8 7850 -12770 0 0 0:22:25
Dsin Pandora 1 37 2 22 0 0 0 63 25 63 63 25 15071 14998 0 0 0:22:54
Public Assassin Spastic 1 50 0 46 0 0 0 98 56 98 98 56 14309 19540 0 0 0:24:04
Hydride Revenge 1 11 1 9 0 0 4 22 1 22 22 1 6774 13343 0 0 0:25:13
Amputate Pandora 2 10 0 5 0 0 0 16 4 8 14 2 2681 6494 0 1 0:25:54
Matter Raid 1 12 0 6 0 0 5 18 77 18 13 77 1986 -41 0 0 0:25:59
MAX B Raid 1 2 0 4 0 0 0 6 77 6 6 77 661 -45 0 0 0:26:08
Micke Dudgeon 1 43 1 32 0 0 2 76 67 76 76 67 9467 4953 0 0 0:26:10
fit of rage Penetrate 1 44 3 34 0 0 0 82 64 82 82 64 13783 10563 0 0 0:28:28
william wallis Raid 1 25 0 35 0 0 4 60 55 60 60 55 16908 10017 2 0 0:31:44
trance Revenge 1 40 3 46 0 0 3 101 63 101 101 63 16101 22760 2 0 0:33:38
WHIMP Sage 1 57 0 27 0 0 2 84 52 84 84 52 12441 10365 0 0 0:34:16
WAR Cobra 1 0 1 9 0 3 8 11 97 19 11 97 5071 -3760 0 0 0:34:45
torcher Cobra 1 8 0 40 0 0 0 56 65 98 56 65 13848 17780 0 0 0:34:48
Major Crisis Sage 1 16 1 4 0 1 6 21 119 21 21 119 5840 -2265 0 0 0:34:55
plob#f Raid 2 44 0 25 1 2 0 69 87 37 41 41 2408 -140 0 0 0:42:27
Kyou Raid 2 18 0 12 0 0 0 48 45 24 26 23 2589 938 6 0 0:43:17
bon Raid 2 11 0 17 0 0 1 38 91 21 20 43 1014 55 3 0 0:43:46
DOWNFALL Revenge 2 9 2 3 0 1 9 25 132 13 17 66 5353 -2380 0 1 0:45:23
Nowyoudie Raid 2 47 2 55 0 0 6 108 96 46 95 46 12507 29765 0 0 0:47:14
Pyroblast Spastic 2 50 1 38 0 0 0 92 95 46 55 48 4087 1940 0 0 0:47:39
Bill C Raid 2 16 1 20 1 6 3 37 170 19 20 85 2906 -3442 0 0 0:53:50
Vehicle Revenge 2 8 2 8 0 6 4 26 123 13 13 62 5113 -3618 1 1 0:54:01
spikey Sage 2 56 1 46 0 1 7 106 118 56 102 59 11011 13778 0 0 0:54:13
Havu Sage 2 45 0 60 0 0 1 113 113 55 95 44 20667 12249 0 0 0:55:18
poxy Spastic 2 54 2 73 0 0 1 136 107 68 75 54 8399 14985 0 0 0:57:01
Da1andonly Sage 2 61 3 43 0 0 1 112 67 44 104 25 13149 6698 0 0 0:57:53
mcvicar Pandora 2 13 1 5 0 1 8 21 164 11 16 82 4585 -2463 0 0 0:58:06
Ricko Cobra 2 77 1 63 0 0 2 141 122 71 83 61 8988 8270 0 0 0:58:09
SleaZy Cobra 2 45 0 37 0 0 4 82 154 41 66 77 4970 3290 0 0 0:59:03
nicholas Dudgeon 3 71 0 59 0 0 1 130 105 28 75 23 6322 7092 0 0 1:01:48
tim Pandora 2 78 6 45 0 0 1 129 47 65 90 24 13235 37824 0 0 1:02:02
cremation Sweet 2 105 1 88 0 0 2 194 115 98 99 58 22798 36918 2 0 1:04:04
Lifter Raid 3 41 3 33 0 0 0 99 83 29 51 25 2243 3421 0 0 1:05:58
maketso Dudgeon 2 103 2 75 0 0 5 180 134 88 95 63 15961 17575 0 0 1:07:06
Stayon Sage 2 149 4 83 0 0 0 236 101 118 127 51 14500 52089 0 0 1:07:36
wbm Sage 2 123 0 87 0 0 5 212 148 106 123 74 14694 34068 0 0 1:08:56
dald Raid 3 21 1 22 4 6 10 44 136 14 32 52 2089 -1880 3 0 1:10:20
Stylez Raid 3 54 4 42 2 8 1 100 128 34 26 43 8803 637 0 0 1:10:23
Alterra Revenge 2 45 5 18 0 0 16 68 18 34 37 9 7029 -10706 0 0 1:10:43
Best Raid 4 67 2 40 0 1 0 129 119 33 63 36 3463 2018 3 0 1:11:35
dsb Spastic 3 10 0 3 0 2 5 13 243 4 7 78 1566 -2489 0 0 1:11:58
Gazo Sage 3 110 4 110 0 0 6 224 151 75 116 50 11267 38917 2 1 1:13:28
humid Cobra 3 77 3 63 0 0 2 143 160 31 81 63 10838 18007 4 0 1:18:56
TheWadoRooster Spastic 3 113 1 87 0 0 4 205 156 68 91 52 8907 19920 0 0 1:20:39
temporary Penetrate 3 107 5 111 0 0 4 223 152 74 106 51 10578 40052 0 1 1:20:41
Shock Therapy Raid 4 92 5 55 0 2 10 167 244 45 78 64 6546 5621 2 0 1:25:42
Sulla Spastic 3 88 0 54 0 0 0 143 117 48 73 39 6947 10297 5 1 1:26:24
Minotar Penetrate 3 138 2 118 0 0 10 258 173 90 101 61 18175 40071 0 0 1:26:38
icnhstlk Penetrate 3 149 4 127 0 0 3 280 124 92 144 40 25098 89754 0 0 1:30:13
euforia Sage 3 61 4 47 0 0 3 117 100 35 78 26 9837 -8377 2 0 1:30:58
saetep Cobra 3 102 4 111 0 0 12 223 172 88 92 57 11837 43950 0 0 1:34:05
Krage Penetrate 3 60 1 23 0 1 15 85 243 28 52 81 7253 -274 0 0 1:35:57
TABARNAK!!! Sage 3 21 0 7 0 3 22 28 337 9 14 112 3103 -2704 0 0 1:38:34
kess Sage 3 186 4 86 0 0 2 276 183 92 100 61 12969 34091 0 0 1:39:43
tj hazuki Spastic 4 104 2 105 0 0 16 222 212 51 87 45 9416 14669 1 0 1:40:48
Jones Sweet 3 162 0 119 0 0 0 281 181 94 97 60 13878 45478 0 0 1:41:05
Eria Spastic 4 13 5 11 1 3 22 34 297 9 13 74 3472 -3244 2 0 1:51:51
MEAN Gene Revenge 4 168 4 122 0 0 5 336 183 84 107 46 14702 66799 0 0 1:52:23
royst Penetrate 4 150 5 122 0 0 12 277 268 69 113 67 10537 37328 0 0 1:56:51
vys Raid 5 93 4 87 1 4 0 184 259 37 49 51 8743 2973 14 0 1:58:23
LF Sweet 4 80 0 48 0 3 20 134 353 29 100 91 7639 18979 0 0 2:01:43
locus Pandora 4 167 5 135 0 0 9 307 180 69 99 41 20010 43496 0 0 2:01:46
Undercut Pandora 4 213 3 157 0 0 8 383 224 96 104 56 14867 72455 1 0 2:04:25
CUBANO Sweet 4 254 3 230 0 0 10 487 247 124 133 62 22416 127287 0 0 2:09:21
a2m Sage 4 24 0 13 0 4 22 37 411 9 19 103 3599 -4791 0 0 2:10:54
Reaver Raid 6 83 3 73 0 0 14 163 83 28 47 18 3337 -2493 0 4 2:11:34
turban Cobra 5 142 0 129 0 0 2 286 216 56 81 37 11918 46405 0 0 2:17:53
RUCCI Spastic 5 175 5 161 0 0 4 357 218 72 99 44 10109 57404 0 0 2:19:04
SPIDERHATE Spastic 5 206 5 148 0 0 1 372 296 76 100 59 9544 34161 1 0 2:20:57
Solace Penetrate 5 290 1 169 0 0 8 461 273 92 143 55 13200 78790 0 0 2:24:56
Cig Revenge 5 37 3 36 0 7 45 92 416 18 37 83 6687 -4385 0 0 2:26:56
Zyclon Sage 5 100 5 74 0 3 21 186 363 40 88 66 8515 12354 0 0 2:30:57
renzi Cobra 5 239 5 146 0 0 5 390 329 78 107 65 12951 32227 3 0 2:32:49
zidane Pandora 6 31 6 24 0 4 28 62 415 10 15 69 4567 -11545 0 1 2:33:32
necromotic Cobra 6 224 10 208 0 1 19 442 320 75 110 56 15161 68906 5 1 2:35:42
sphinx Sweet 5 265 2 183 0 0 3 451 252 91 102 49 15689 77542 0 0 2:36:26
SPRAINED Spastic 6 194 3 133 0 0 3 334 287 48 96 43 7199 25372 0 0 2:36:44
Kian Revenge 5 305 5 213 0 0 13 541 397 108 148 79 14589 83082 0 0 2:37:14
megaman89 Dudgeon 5 267 4 213 0 0 2 486 283 97 109 58 15071 84366 0 0 2:37:24
Engineers Sweet 5 241 0 142 0 0 0 385 318 77 95 64 10391 30702 0 0 2:38:45
Melanoma Dudgeon 5 221 7 171 0 0 5 403 358 86 116 76 18556 38457 0 1 2:38:53
KAWRAE Sage 5 234 6 212 0 0 3 453 273 91 98 55 12682 80105 0 0 2:41:16
fLaReD Cobra 6 200 2 122 0 2 4 325 198 49 92 29 15545 20730 5 2 2:44:25
CJW Spastic 6 231 5 124 0 0 1 377 412 64 91 74 13749 13937 0 0 2:56:16
Ra Sweet 6 271 4 220 0 0 7 497 329 83 107 54 13070 70061 1 0 2:57:54
Creature Cobra 6 30 3 21 0 1 22 54 581 9 13 97 3487 -5197 0 1 2:59:07
Blahhy. Penetrate 6 304 4 248 0 0 5 556 357 92 121 58 19397 102582 1 0 3:02:10
Riverside Sweet 6 78 4 30 0 3 23 114 620 19 29 103 4590 -9895 3 0 3:07:13
zhou Penetrate 6 293 12 178 0 0 1 483 334 81 109 56 11920 61673 0 1 3:09:18
Pardon Dudgeon 6 17 1 19 0 3 45 39 660 7 9 110 3309 -4987 0 0 3:09:55
nokkonen Dudgeon 6 31 3 13 0 5 62 47 658 8 11 109 4392 -6827 0 0 3:10:37
Mikkiz Dudgeon 6 132 12 65 0 0 8 211 42 35 38 7 7968 20718 0 0 3:14:07
gilder Dudgeon 7 256 2 164 0 0 4 429 304 64 79 50 12636 44906 0 0 3:17:11
Zizu Sage 6 156 8 101 0 0 3 265 42 44 52 7 8444 82235 0 0 3:20:15
OGRON Sage 7 275 3 234 0 0 5 524 358 72 109 46 15032 80278 0 0 3:21:35
NL>Trigger Sage 7 316 6 152 0 0 6 481 383 67 113 53 11820 53456 1 1 3:21:45
Ayn Pandora 6 363 5 283 0 0 8 653 432 109 127 72 17264 130120 2 0 3:24:10
JAMAL Spastic 7 193 2 209 0 5 20 422 506 61 138 72 9199 89714 0 0 3:29:42
Eelam Sweet 7 267 11 167 0 4 24 447 461 58 106 59 19509 43836 13 0 3:32:42
Dwopple Cobra 8 77 8 22 0 4 27 107 683 14 27 87 4922 -6608 4 0 3:36:08
Chief Utsav Cobra 7 135 9 75 0 0 4 219 58 32 43 9 7966 -92 1 0 3:37:43
Gran Guerrero Spastic 8 54 2 20 0 7 65 82 653 10 25 82 3557 -9278 1 1 3:39:03
zeebu Sweet 7 350 6 262 0 0 5 621 382 90 118 56 14881 104807 0 0 3:39:42
Veloce Penetrate 7 72 6 31 0 7 78 109 679 16 19 97 4764 -13735 1 0 3:41:30
cranium Revenge 7 61 6 30 0 4 40 99 748 15 35 109 6383 -10628 0 0 3:43:35
dreamwin Dudgeon 7 351 9 281 0 1 20 644 442 99 116 70 40332 69825 0 0 3:45:46
superstar-PROkiller Sage 7 168 5 148 0 8 40 327 577 44 100 86 8987 16016 0 0 3:45:58
Sakke Dudgeon 7 237 3 152 0 3 24 394 528 57 97 75 14335 32220 0 0 3:47:36
Zizzo Dudgeon 7 337 15 275 0 0 7 629 512 99 119 77 43080 66623 8 3 3:49:24
iNfRaReD Cobra 9 347 9 307 0 0 7 668 481 76 110 49 15957 98062 0 0 3:53:22
Pure_Luck Spastic 8 143 5 61 0 0 12 213 78 28 44 9 6851 -73451 0 0 3:55:44
skatarius Revenge 8 329 7 264 0 0 7 638 437 79 109 53 15036 100950 0 0 3:59:09
Murder Cobra 8 290 2 260 0 3 35 555 498 70 94 62 10974 62089 6 0 4:05:15
porkjet Penetrate 8 52 4 24 0 6 45 80 803 10 17 100 4350 -8551 0 0 4:11:30
Ease Pandora 8 504 5 329 0 0 23 848 470 106 147 59 17466 195718 0 0 4:13:20
AcidBomber Penetrate 8 480 14 269 0 0 14 765 382 97 130 47 17373 157611 0 0 4:15:48
Trasher Penetrate 8 457 5 300 0 0 9 763 357 95 125 45 15293 172512 0 0 4:16:49
Cintra Penetrate 8 219 10 126 0 0 12 358 43 45 66 5 8794 162816 0 0 4:18:42
Kate Upton Pandora 8 401 15 271 0 0 5 690 444 86 119 56 14992 120517 0 0 4:24:01
Vatican Assassin Pandora 8 49 5 21 0 7 32 75 836 9 15 105 4971 -14441 1 0 4:29:19
Pressure Revenge 9 202 11 114 0 0 7 334 51 37 51 6 8291 143889 1 0 4:39:19
hulk Sweet 9 93 1 50 0 7 54 145 906 15 57 102 5457 -10796 0 0 4:46:36
Burnt Sweet 9 174 6 91 0 0 12 272 82 32 31 9 7951 -39819 1 0 4:46:48
menelvagor Revenge 10 107 15 58 0 8 96 187 911 19 74 91 15447 7059 0 0 4:57:10
Leitz Pandora 9 482 8 452 0 0 20 952 617 106 151 69 16407 200620 2 0 4:58:29
Spezza Pandora 9 639 11 280 0 0 3 934 481 104 159 53 16903 193164 0 0 4:59:08
sarger Pandora 9 545 11 352 0 0 6 908 613 101 122 68 15678 147928 0 0 5:07:23
glavitik Revenge 10 521 11 436 0 0 14 973 600 97 119 60 14539 188137 1 1 5:09:12
Mattey Pandora 9 54 6 20 0 6 35 80 955 5 16 97 8319 -13262 0 0 5:09:58
squallFF8 Revenge 10 515 10 335 0 0 5 872 550 87 114 55 13751 146122 5 0 5:17:29
M_M God Revenge 11 572 9 397 0 2 11 1008 547 90 116 47 15576 194101 1 0 5:35:17
hellkite Revenge 11 510 12 324 0 3 5 894 698 76 120 65 13725 155607 2 0 5:38:01
Cape Pandora 10 279 22 138 0 0 16 441 107 47 64 14 10301 102383 0 0 5:40:54

 
 

Central: Pacific: Eastern:
London: New Zealand: Australia:
Helsinki: Brazil: Netherlands: